createdAt,value
2023-03-11T00:01:15.963Z,96261.31
2023-03-11T00:04:28.026Z,96256.01
2023-03-11T00:07:40.870Z,96268.23
2023-03-11T00:10:55.688Z,96266.20
2023-03-11T00:14:07.859Z,96256.00
2023-03-11T00:17:19.864Z,96263.37
2023-03-11T00:20:35.022Z,96264.81
2023-03-11T00:23:46.957Z,96257.69
2023-03-11T00:27:02.527Z,96253.80
2023-03-11T00:30:20.311Z,96250.55
2023-03-11T00:33:32.868Z,96247.48
2023-03-11T00:36:45.373Z,96241.16
2023-03-11T00:39:57.437Z,96236.88
2023-03-11T00:43:09.992Z,96242.58
2023-03-11T00:46:22.291Z,96234.42
2023-03-11T00:49:34.508Z,96243.58
2023-03-11T00:52:46.900Z,96240.31
2023-03-11T00:55:59.123Z,96242.55
2023-03-11T00:59:11.445Z,96247.62
2023-03-11T01:02:23.766Z,96246.82
2023-03-11T01:05:39.098Z,96237.81
2023-03-11T01:08:51.435Z,96241.08
2023-03-11T01:12:03.693Z,96229.66
2023-03-11T01:15:21.416Z,96225.39
2023-03-11T01:18:33.990Z,96220.50
2023-03-11T01:21:47.156Z,96219.70
2023-03-11T01:24:59.427Z,96213.39
2023-03-11T01:28:12.828Z,96214.02
2023-03-11T01:31:25.216Z,96215.02
2023-03-11T01:34:37.733Z,96208.09
2023-03-11T01:37:50.405Z,96211.58
2023-03-11T01:41:02.814Z,96216.05
2023-03-11T01:44:17.586Z,96211.75
2023-03-11T01:47:45.712Z,96213.58
2023-03-11T01:50:58.377Z,96204.19
2023-03-11T01:54:14.896Z,96213.38
2023-03-11T01:57:28.315Z,96210.31
2023-03-11T02:00:42.003Z,96215.44
2023-03-11T02:03:55.202Z,96216.25
2023-03-11T02:07:08.574Z,96219.93
2023-03-11T02:10:22.269Z,96221.76
2023-03-11T02:13:35.424Z,96226.03
2023-03-11T02:16:47.828Z,96217.47
2023-03-11T02:20:19.147Z,96219.88
2023-03-11T02:23:37.674Z,96226.63
2023-03-11T02:27:00.477Z,96217.61
2023-03-11T02:30:18.985Z,96225.97
2023-03-11T02:33:34.538Z,96220.44
2023-03-11T02:36:49.100Z,96231.41
2023-03-11T02:40:17.624Z,96238.33
2023-03-11T02:43:37.946Z,96239.94
2023-03-11T02:46:51.008Z,96241.72
2023-03-11T02:50:04.237Z,96248.41
2023-03-11T02:53:17.224Z,96247.17
2023-03-11T02:56:29.448Z,96249.60
2023-03-11T02:59:44.568Z,96250.59
2023-03-11T03:02:58.978Z,96252.00
2023-03-11T03:06:13.058Z,96242.64
2023-03-11T03:09:25.332Z,96233.25
2023-03-11T03:12:37.947Z,96237.70
2023-03-11T03:15:50.138Z,96260.45
2023-03-11T03:19:02.502Z,96254.31
2023-03-11T03:22:14.977Z,96249.36
2023-03-11T03:25:27.785Z,96257.44
2023-03-11T03:28:40.743Z,96262.45
2023-03-11T03:31:53.485Z,96256.70
2023-03-11T03:35:07.148Z,96256.47
2023-03-11T03:38:24.118Z,96258.05
2023-03-11T03:41:37.656Z,96255.14
2023-03-11T03:44:50.674Z,96252.50
2023-03-11T03:48:03.898Z,96253.09
2023-03-11T03:51:19.790Z,96256.73
2023-03-11T03:54:34.104Z,96256.27
2023-03-11T03:57:47.385Z,96251.17
2023-03-11T04:01:05.099Z,96253.36
2023-03-11T04:04:18.044Z,96242.62
2023-03-11T04:07:30.707Z,96241.36
2023-03-11T04:10:43.175Z,96237.69
2023-03-11T04:13:55.532Z,96228.51
2023-03-11T04:17:07.734Z,96223.61
2023-03-11T04:20:21.232Z,96215.85
2023-03-11T04:23:34.600Z,96212.14
2023-03-11T04:26:47.733Z,96202.96
2023-03-11T04:30:01.337Z,96201.97
2023-03-11T04:33:14.963Z,96203.72
2023-03-11T04:36:27.483Z,96211.64
2023-03-11T04:39:40.034Z,96213.03
2023-03-11T04:42:53.922Z,96225.45
2023-03-11T04:46:10.582Z,96216.42
2023-03-11T04:49:23.594Z,96227.81
2023-03-11T04:52:36.392Z,96229.83
2023-03-11T04:55:48.910Z,96238.14
2023-03-11T04:59:01.211Z,96241.14
2023-03-11T05:02:14.138Z,96258.20
2023-03-11T05:05:28.198Z,96260.66
2023-03-11T05:08:40.700Z,96249.88
2023-03-11T05:11:54.454Z,96238.89
2023-03-11T05:15:07.281Z,96239.09
2023-03-11T05:18:19.703Z,96245.10
2023-03-11T05:21:33.041Z,96242.37
2023-03-11T05:24:47.065Z,96244.30
2023-03-11T05:27:59.686Z,96254.66
2023-03-11T05:31:16.885Z,96251.91
2023-03-11T05:34:29.855Z,96263.86
2023-03-11T05:37:42.656Z,96254.82
2023-03-11T05:40:55.273Z,96273.16
2023-03-11T05:44:07.572Z,96263.45
2023-03-11T05:47:20.056Z,96273.67
2023-03-11T05:50:32.914Z,96274.47
2023-03-11T05:53:48.684Z,96281.64
2023-03-11T05:57:03.017Z,96293.77
2023-03-11T06:00:20.610Z,96293.77
2023-03-11T06:03:33.547Z,96290.36
2023-03-11T06:06:46.585Z,96307.38
2023-03-11T06:09:59.770Z,96314.77
2023-03-11T06:13:11.972Z,96314.63
2023-03-11T06:16:26.458Z,96322.44
2023-03-11T06:19:39.407Z,96331.09
2023-03-11T06:22:53.987Z,96349.23
2023-03-11T06:26:11.088Z,96366.37
2023-03-11T06:29:26.813Z,96373.98
2023-03-11T06:32:39.471Z,96377.94
2023-03-11T06:36:02.241Z,96381.58
2023-03-11T06:39:18.648Z,96378.97
2023-03-11T06:42:32.594Z,96375.34
2023-03-11T06:45:45.062Z,96381.25
2023-03-11T06:48:58.398Z,96383.39
2023-03-11T06:52:11.750Z,96404.42
2023-03-11T06:55:25.388Z,96402.63
2023-03-11T06:58:39.932Z,96398.85
2023-03-11T07:01:52.428Z,96411.00
2023-03-11T07:05:05.262Z,96408.02
2023-03-11T07:08:17.637Z,96434.66
2023-03-11T07:11:32.249Z,96433.69
2023-03-11T07:14:46.162Z,96446.66
2023-03-11T07:17:58.523Z,96449.76
2023-03-11T07:21:12.755Z,96466.98
2023-03-11T07:24:25.169Z,96461.73
2023-03-11T07:27:37.479Z,96485.83
2023-03-11T07:30:49.744Z,96479.53
2023-03-11T07:34:03.282Z,96477.41
2023-03-11T07:37:15.561Z,96489.08
2023-03-11T07:40:27.961Z,96495.46
2023-03-11T07:43:40.477Z,96491.14
2023-03-11T07:46:52.873Z,96498.75
2023-03-11T07:50:05.068Z,96505.30
2023-03-11T07:53:17.286Z,96504.60
2023-03-11T07:56:31.249Z,96512.81
2023-03-11T07:59:43.564Z,96505.93
2023-03-11T08:02:55.940Z,96521.31
2023-03-11T08:06:10.721Z,96524.89
2023-03-11T08:09:23.044Z,96527.69
2023-03-11T08:12:34.973Z,96529.14
2023-03-11T08:15:47.086Z,96537.69
2023-03-11T08:19:00.345Z,96534.02
2023-03-11T08:22:13.071Z,96538.59
2023-03-11T08:25:25.424Z,96549.19
2023-03-11T08:28:37.591Z,96545.90
2023-03-11T08:31:49.703Z,96553.31
2023-03-11T08:35:01.799Z,96553.73
2023-03-11T08:38:14.413Z,96552.78
2023-03-11T08:41:27.125Z,96563.61
2023-03-11T08:44:39.607Z,96557.80
2023-03-11T08:47:51.808Z,96567.97
2023-03-11T08:51:04.135Z,96577.08
2023-03-11T08:54:16.372Z,96588.23
2023-03-11T08:57:28.579Z,96581.82
2023-03-11T09:00:41.019Z,96582.30
2023-03-11T09:03:53.711Z,96581.09
2023-03-11T09:07:05.811Z,96595.45
2023-03-11T09:10:20.589Z,96599.47
2023-03-11T09:13:33.204Z,96604.88
2023-03-11T09:16:45.702Z,96598.22
2023-03-11T09:19:58.073Z,96598.96
2023-03-11T09:23:10.590Z,96606.77
2023-03-11T09:26:23.466Z,96615.44
2023-03-11T09:29:36.472Z,96616.61
2023-03-11T09:32:48.709Z,96628.30
2023-03-11T09:36:00.975Z,96630.84
2023-03-11T09:39:13.576Z,96635.48
2023-03-11T09:42:32.275Z,96647.50
2023-03-11T09:45:49.325Z,96634.00
2023-03-11T09:49:03.586Z,96639.33
2023-03-11T09:52:19.954Z,96640.66
2023-03-11T09:55:51.339Z,96656.09
2023-03-11T09:59:07.257Z,96660.30
2023-03-11T10:02:26.741Z,96655.81
2023-03-11T10:05:39.405Z,96667.88
2023-03-11T10:08:59.361Z,96669.22
2023-03-11T10:12:21.432Z,96684.69
2023-03-11T10:15:42.945Z,96682.19
2023-03-11T10:19:04.398Z,96690.22
2023-03-11T10:22:25.274Z,96690.06
2023-03-11T10:25:45.227Z,96707.10
2023-03-11T10:29:02.620Z,96717.39
2023-03-11T10:32:20.576Z,96729.37
2023-03-11T10:35:40.810Z,96719.86
2023-03-11T10:38:56.318Z,96720.62
2023-03-11T10:42:13.638Z,96728.25
2023-03-11T10:45:27.566Z,96730.28
2023-03-11T10:48:40.401Z,96730.80
2023-03-11T10:51:57.319Z,96746.97
2023-03-11T10:55:11.344Z,96752.02
2023-03-11T10:58:27.225Z,96752.48
2023-03-11T11:01:39.452Z,96765.53
2023-03-11T11:04:51.903Z,96756.26
2023-03-11T11:08:16.088Z,96766.19
2023-03-11T11:11:31.996Z,96774.24
2023-03-11T11:14:56.588Z,96773.60
2023-03-11T11:18:16.381Z,96789.59
2023-03-11T11:21:38.462Z,96791.45
2023-03-11T11:24:55.573Z,96790.52
2023-03-11T11:28:14.561Z,96828.45
2023-03-11T11:31:32.318Z,96817.14
2023-03-11T11:34:45.534Z,96816.86
2023-03-11T11:38:02.571Z,96822.92
2023-03-11T11:41:16.860Z,96827.05
2023-03-11T11:44:33.566Z,96834.09
2023-03-11T11:47:50.488Z,96854.06
2023-03-11T11:51:06.557Z,96850.06
2023-03-11T11:54:25.593Z,96849.77
2023-03-11T11:57:38.341Z,96868.94
2023-03-11T12:01:07.026Z,96864.39
2023-03-11T12:04:54.865Z,96880.49
2023-03-11T12:08:17.529Z,96888.48
2023-03-11T12:11:36.686Z,96891.23
2023-03-11T12:14:53.814Z,96902.50
2023-03-11T12:18:11.345Z,96908.72
2023-03-11T12:21:33.700Z,96913.66
2023-03-11T12:25:01.422Z,96926.48
2023-03-11T12:28:26.108Z,96939.13
2023-03-11T12:31:42.982Z,96952.38
2023-03-11T12:34:55.392Z,96956.80
2023-03-11T12:38:25.412Z,96973.89
2023-03-11T12:41:42.954Z,97003.45
2023-03-11T12:44:57.556Z,97023.17
2023-03-11T12:48:50.477Z,97038.09
2023-03-11T12:52:26.492Z,97052.13
2023-03-11T12:55:42.114Z,97068.67
2023-03-11T12:59:18.912Z,97064.52
2023-03-11T13:02:52.299Z,97076.38
2023-03-11T13:06:17.972Z,97116.61
2023-03-11T13:09:32.165Z,97108.30
2023-03-11T13:12:50.807Z,97118.34
2023-03-11T13:16:05.206Z,97121.20
2023-03-11T13:19:56.273Z,97132.89
2023-03-11T13:23:40.887Z,97135.27
2023-03-11T13:26:56.767Z,97144.14
2023-03-11T13:30:17.282Z,97157.22
2023-03-11T13:33:55.768Z,97174.83
2023-03-11T13:37:25.391Z,97182.28
2023-03-11T13:40:42.823Z,97199.80
2023-03-11T13:43:57.342Z,97212.38
2023-03-11T13:47:16.288Z,97215.80
2023-03-11T13:50:34.699Z,97223.86
2023-03-11T13:53:51.971Z,97230.64
2023-03-11T13:57:07.439Z,97231.11
2023-03-11T14:00:28.666Z,97246.41
2023-03-11T14:03:48.701Z,97256.63
2023-03-11T14:07:01.524Z,97260.53
2023-03-11T14:10:39.676Z,97268.44
2023-03-11T14:13:55.337Z,97277.59
2023-03-11T14:17:09.698Z,97287.60
2023-03-11T14:20:25.360Z,97287.60
2023-03-11T14:23:44.193Z,97302.11
2023-03-11T14:26:57.905Z,97308.44
2023-03-11T14:30:11.964Z,97315.89
2023-03-11T14:33:28.569Z,97317.08
2023-03-11T14:36:54.390Z,97325.78
2023-03-11T14:40:07.971Z,97346.30
2023-03-11T14:43:20.724Z,97352.99
2023-03-11T14:46:35.835Z,97366.30
2023-03-11T14:49:48.293Z,97373.92
2023-03-11T14:53:04.942Z,97367.01
2023-03-11T14:56:23.061Z,97389.13
2023-03-11T14:59:38.168Z,97398.66
2023-03-11T15:03:03.141Z,97404.11
2023-03-11T15:06:19.367Z,97416.23
2023-03-11T15:09:32.920Z,97434.92
2023-03-11T15:12:50.033Z,97436.20
2023-03-11T15:16:04.484Z,97450.85
2023-03-11T15:19:38.676Z,97452.38
2023-03-11T15:22:51.429Z,97456.98
2023-03-11T15:26:04.322Z,97461.63
2023-03-11T15:29:23.142Z,97481.48
2023-03-11T15:32:48.949Z,97485.74
2023-03-11T15:36:01.543Z,97485.86
2023-03-11T15:39:29.033Z,97492.39
2023-03-11T15:42:39.391Z,97514.34
2023-03-11T15:45:53.621Z,97514.95
2023-03-11T15:49:05.866Z,97519.58
2023-03-11T15:52:19.371Z,97530.15
2023-03-11T15:55:33.449Z,97523.38
2023-03-11T15:58:46.066Z,97527.68
2023-03-11T16:01:59.625Z,97537.17
2023-03-11T16:05:21.690Z,97530.89
2023-03-11T16:08:34.885Z,97539.45
2023-03-11T16:11:48.495Z,97542.19
2023-03-11T16:15:00.755Z,97554.17
2023-03-11T16:18:14.755Z,97558.59
2023-03-11T16:21:32.068Z,97564.88
2023-03-11T16:24:44.552Z,97573.64
2023-03-11T16:28:00.025Z,97575.45
2023-03-11T16:31:13.685Z,97574.81
2023-03-11T16:34:26.464Z,97587.80
2023-03-11T16:37:39.056Z,97588.52
2023-03-11T16:40:51.640Z,97603.95
2023-03-11T16:44:03.764Z,97608.98
2023-03-11T16:47:16.080Z,97611.80
2023-03-11T16:50:29.062Z,97618.92
2023-03-11T16:53:41.959Z,97616.81
2023-03-11T16:56:55.053Z,97627.27
2023-03-11T17:00:10.032Z,97634.39
2023-03-11T17:03:27.574Z,97640.44
2023-03-11T17:06:40.511Z,97651.97
2023-03-11T17:09:52.744Z,97656.23
2023-03-11T17:13:05.280Z,97660.30
2023-03-11T17:16:19.280Z,97669.91
2023-03-11T17:19:33.600Z,97667.41
2023-03-11T17:22:47.698Z,97690.45
2023-03-11T17:26:01.709Z,97698.38
2023-03-11T17:29:15.284Z,97704.33
2023-03-11T17:32:31.396Z,97698.86
2023-03-11T17:35:44.882Z,97713.69
2023-03-11T17:39:00.337Z,97721.73
2023-03-11T17:42:14.086Z,97726.64
2023-03-11T17:45:26.451Z,97731.46
2023-03-11T17:48:38.714Z,97743.37
2023-03-11T17:51:51.259Z,97744.82
2023-03-11T17:55:03.858Z,97756.23
2023-03-11T17:58:16.193Z,97760.73
2023-03-11T18:01:31.812Z,97769.94
2023-03-11T18:04:46.055Z,97778.50
2023-03-11T18:07:59.490Z,97787.30
2023-03-11T18:11:18.868Z,97801.52
2023-03-11T18:14:32.760Z,97804.86
2023-03-11T18:17:45.901Z,97815.94
2023-03-11T18:20:58.571Z,97827.45
2023-03-11T18:24:12.962Z,97840.29
2023-03-11T18:27:25.316Z,97845.23
2023-03-11T18:30:38.029Z,97852.52
2023-03-11T18:33:53.669Z,97866.95
2023-03-11T18:37:05.997Z,97880.33
2023-03-11T18:40:21.434Z,97878.53
2023-03-11T18:43:34.444Z,97881.47
2023-03-11T18:46:47.089Z,97886.91
2023-03-11T18:49:59.202Z,97898.72
2023-03-11T18:53:12.076Z,97911.67
2023-03-11T18:56:25.687Z,97912.63
2023-03-11T18:59:38.311Z,97912.73
2023-03-11T19:02:50.610Z,97921.39
2023-03-11T19:06:03.705Z,97919.40
2023-03-11T19:09:16.565Z,97919.31
2023-03-11T19:12:30.871Z,97913.98
2023-03-11T19:15:46.430Z,97922.45
2023-03-11T19:18:59.167Z,97931.64
2023-03-11T19:22:11.493Z,97937.71
2023-03-11T19:25:27.536Z,97954.86
2023-03-11T19:28:40.165Z,97957.58
2023-03-11T19:31:52.562Z,97960.38
2023-03-11T19:35:04.559Z,97976.50
2023-03-11T19:38:16.655Z,97979.00
2023-03-11T19:41:28.687Z,97993.10
2023-03-11T19:44:40.891Z,97992.36
2023-03-11T19:47:53.006Z,98002.70
2023-03-11T19:51:05.847Z,98004.73
2023-03-11T19:54:19.443Z,98008.89
2023-03-11T19:57:31.639Z,98012.57
2023-03-11T20:00:45.688Z,98022.70
2023-03-11T20:03:59.499Z,98022.80
2023-03-11T20:07:12.193Z,98027.41
2023-03-11T20:10:25.183Z,98031.89
2023-03-11T20:13:41.269Z,98034.61
2023-03-11T20:16:54.011Z,98040.02
2023-03-11T20:20:06.595Z,98039.39
2023-03-11T20:23:19.438Z,98048.16
2023-03-11T20:26:32.292Z,98053.81
2023-03-11T20:29:44.969Z,98058.58
2023-03-11T20:36:26.775Z,98062.72
2023-03-11T20:39:39.193Z,98066.45
2023-03-11T20:42:51.835Z,98073.66
2023-03-11T20:46:05.764Z,98077.30
2023-03-11T20:49:18.700Z,98073.09
2023-03-11T20:52:33.359Z,98071.71
2023-03-11T20:55:48.037Z,98075.55
2023-03-11T20:59:02.972Z,98083.77
2023-03-11T21:05:46.162Z,98087.78
2023-03-11T21:09:02.414Z,98088.80
2023-03-11T21:12:15.850Z,98085.65
2023-03-11T21:15:28.748Z,98085.01
2023-03-11T21:18:54.381Z,98095.45
2023-03-11T21:22:19.660Z,98091.45
2023-03-11T21:25:42.888Z,98091.45
2023-03-11T21:28:55.345Z,98091.63
2023-03-11T21:32:19.590Z,98092.64
2023-03-11T21:39:14.674Z,98103.92
2023-03-11T21:53:30.956Z,98121.27
2023-03-11T22:18:45.612Z,98146.42
2023-03-11T22:21:57.701Z,98144.66
2023-03-11T22:25:15.067Z,98144.56
2023-03-11T22:28:40.466Z,98146.05
2023-03-11T22:32:00.151Z,98151.27
2023-03-11T22:42:19.994Z,98155.10
2023-03-11T22:45:32.319Z,98152.49
2023-03-11T22:48:57.432Z,98161.14
2023-03-11T22:52:23.131Z,98157.51
2023-03-11T22:59:27.895Z,98159.20
2023-03-11T23:06:23.131Z,98163.09
2023-03-11T23:09:35.292Z,98163.84
2023-03-11T23:16:31.445Z,98163.84
2023-03-11T23:30:59.309Z,98172.52
2023-03-11T23:37:55.293Z,98181.28
2023-03-11T23:52:41.330Z,98192.66
